sensor_id;sensor_type;location;lat;lon;timestamp;P1;durP1;ratioP1;P2;durP2;ratioP2
13590;SDS011;6866;50.778;7.206;2023-10-09T00:00:23;19.98;;;12.52;;
13590;SDS011;6866;50.778;7.206;2023-10-09T00:03:05;21.58;;;13.48;;
13590;SDS011;6866;50.778;7.206;2023-10-09T00:05:31;19.95;;;12.85;;
13590;SDS011;6866;50.778;7.206;2023-10-09T00:08:09;22.27;;;13.68;;
13590;SDS011;6866;50.778;7.206;2023-10-09T00:10:35;19.13;;;13.38;;
13590;SDS011;6866;50.778;7.206;2023-10-09T00:13:10;18.88;;;12.68;;
13590;SDS011;6866;50.778;7.206;2023-10-09T00:15:36;18.63;;;12.63;;
13590;SDS011;6866;50.778;7.206;2023-10-09T00:18:02;17.98;;;12.50;;
13590;SDS011;6866;50.778;7.206;2023-10-09T00:20:37;21.73;;;12.82;;
13590;SDS011;6866;50.778;7.206;2023-10-09T00:23:04;18.48;;;13.10;;
13590;SDS011;6866;50.778;7.206;2023-10-09T00:25:37;18.63;;;12.02;;
13590;SDS011;6866;50.778;7.206;2023-10-09T00:28:09;19.30;;;12.60;;
13590;SDS011;6866;50.778;7.206;2023-10-09T00:30:40;16.00;;;12.02;;
13590;SDS011;6866;50.778;7.206;2023-10-09T00:33:06;17.65;;;12.75;;
13590;SDS011;6866;50.778;7.206;2023-10-09T00:35:36;18.00;;;12.18;;
13590;SDS011;6866;50.778;7.206;2023-10-09T00:38:05;18.00;;;11.57;;
13590;SDS011;6866;50.778;7.206;2023-10-09T00:40:49;18.08;;;11.20;;
13590;SDS011;6866;50.778;7.206;2023-10-09T00:43:29;18.88;;;12.23;;
13590;SDS011;6866;50.778;7.206;2023-10-09T00:45:56;16.58;;;11.85;;
13590;SDS011;6866;50.778;7.206;2023-10-09T00:48:54;20.50;;;12.18;;
13590;SDS011;6866;50.778;7.206;2023-10-09T00:51:27;16.92;;;11.57;;
13590;SDS011;6866;50.778;7.206;2023-10-09T00:53:59;19.83;;;12.50;;
13590;SDS011;6866;50.778;7.206;2023-10-09T00:56:32;16.55;;;11.35;;
13590;SDS011;6866;50.778;7.206;2023-10-09T00:59:08;18.58;;;12.25;;
13590;SDS011;6866;50.778;7.206;2023-10-09T01:04:14;16.73;;;11.98;;
13590;SDS011;6866;50.778;7.206;2023-10-09T01:06:43;17.73;;;12.23;;
13590;SDS011;6866;50.778;7.206;2023-10-09T01:09:14;17.67;;;12.60;;
13590;SDS011;6866;50.778;7.206;2023-10-09T01:14:13;17.35;;;12.13;;
13590;SDS011;6866;50.778;7.206;2023-10-09T01:16:40;18.48;;;11.90;;
13590;SDS011;6866;50.778;7.206;2023-10-09T01:19:09;18.40;;;12.18;;
13590;SDS011;6866;50.778;7.206;2023-10-09T01:21:38;20.88;;;12.00;;
13590;SDS011;6866;50.778;7.206;2023-10-09T01:24:07;18.70;;;11.18;;
13590;SDS011;6866;50.778;7.206;2023-10-09T01:26:38;17.45;;;12.82;;
13590;SDS011;6866;50.778;7.206;2023-10-09T01:29:09;17.95;;;12.70;;
13590;SDS011;6866;50.778;7.206;2023-10-09T01:31:39;17.48;;;11.27;;
13590;SDS011;6866;50.778;7.206;2023-10-09T01:34:18;15.35;;;11.85;;
13590;SDS011;6866;50.778;7.206;2023-10-09T01:36:48;17.88;;;11.93;;
13590;SDS011;6866;50.778;7.206;2023-10-09T01:39:15;17.50;;;11.88;;
13590;SDS011;6866;50.778;7.206;2023-10-09T01:41:54;18.63;;;11.90;;
13590;SDS011;6866;50.778;7.206;2023-10-09T01:44:27;16.17;;;12.07;;
13590;SDS011;6866;50.778;7.206;2023-10-09T01:47:03;17.67;;;11.50;;
13590;SDS011;6866;50.778;7.206;2023-10-09T01:49:33;16.50;;;11.15;;
13590;SDS011;6866;50.778;7.206;2023-10-09T01:52:00;14.63;;;10.82;;
13590;SDS011;6866;50.778;7.206;2023-10-09T01:54:32;14.90;;;11.18;;
13590;SDS011;6866;50.778;7.206;2023-10-09T01:57:04;15.27;;;11.13;;
13590;SDS011;6866;50.778;7.206;2023-10-09T01:59:33;16.38;;;10.98;;
13590;SDS011;6866;50.778;7.206;2023-10-09T02:02:03;16.13;;;11.40;;
13590;SDS011;6866;50.778;7.206;2023-10-09T02:04:50;20.00;;;11.02;;
13590;SDS011;6866;50.778;7.206;2023-10-09T02:07:29;16.85;;;10.40;;
13590;SDS011;6866;50.778;7.206;2023-10-09T02:10:05;16.80;;;10.18;;
13590;SDS011;6866;50.778;7.206;2023-10-09T02:12:36;16.17;;;10.40;;
13590;SDS011;6866;50.778;7.206;2023-10-09T02:15:02;16.88;;;10.43;;
13590;SDS011;6866;50.778;7.206;2023-10-09T02:17:40;16.77;;;10.48;;
13590;SDS011;6866;50.778;7.206;2023-10-09T02:20:17;16.60;;;9.88;;
13590;SDS011;6866;50.778;7.206;2023-10-09T02:22:53;17.92;;;10.10;;
13590;SDS011;6866;50.778;7.206;2023-10-09T02:25:19;14.13;;;10.02;;
13590;SDS011;6866;50.778;7.206;2023-10-09T02:27:46;15.85;;;10.45;;
13590;SDS011;6866;50.778;7.206;2023-10-09T02:30:18;14.82;;;10.07;;
13590;SDS011;6866;50.778;7.206;2023-10-09T02:32:52;13.70;;;9.43;;
13590;SDS011;6866;50.778;7.206;2023-10-09T02:35:31;15.05;;;10.20;;
13590;SDS011;6866;50.778;7.206;2023-10-09T02:38:04;16.48;;;10.32;;
13590;SDS011;6866;50.778;7.206;2023-10-09T02:40:36;15.38;;;10.60;;
13590;SDS011;6866;50.778;7.206;2023-10-09T02:43:18;14.88;;;10.18;;
13590;SDS011;6866;50.778;7.206;2023-10-09T02:45:44;16.50;;;9.95;;
13590;SDS011;6866;50.778;7.206;2023-10-09T02:48:15;14.50;;;9.88;;
13590;SDS011;6866;50.778;7.206;2023-10-09T02:50:44;17.50;;;9.48;;
13590;SDS011;6866;50.778;7.206;2023-10-09T02:53:10;13.20;;;9.05;;
13590;SDS011;6866;50.778;7.206;2023-10-09T02:55:43;14.52;;;9.35;;
13590;SDS011;6866;50.778;7.206;2023-10-09T02:58:28;13.05;;;9.20;;
13590;SDS011;6866;50.778;7.206;2023-10-09T03:00:57;15.27;;;9.50;;
13590;SDS011;6866;50.778;7.206;2023-10-09T03:03:23;12.20;;;9.15;;
13590;SDS011;6866;50.778;7.206;2023-10-09T03:05:50;12.30;;;8.98;;
13590;SDS011;6866;50.778;7.206;2023-10-09T03:08:15;15.20;;;9.18;;
13590;SDS011;6866;50.778;7.206;2023-10-09T03:10:44;13.23;;;9.40;;
13590;SDS011;6866;50.778;7.206;2023-10-09T03:13:09;12.20;;;8.68;;
13590;SDS011;6866;50.778;7.206;2023-10-09T03:15:35;14.68;;;9.50;;
13590;SDS011;6866;50.778;7.206;2023-10-09T03:18:01;12.50;;;9.27;;
13590;SDS011;6866;50.778;7.206;2023-10-09T03:20:29;14.52;;;8.98;;
13590;SDS011;6866;50.778;7.206;2023-10-09T03:22:59;13.95;;;9.02;;
13590;SDS011;6866;50.778;7.206;2023-10-09T03:25:26;12.65;;;8.48;;
13590;SDS011;6866;50.778;7.206;2023-10-09T03:27:53;13.80;;;9.27;;
13590;SDS011;6866;50.778;7.206;2023-10-09T03:30:21;14.18;;;9.48;;
13590;SDS011;6866;50.778;7.206;2023-10-09T03:32:50;12.15;;;8.98;;
13590;SDS011;6866;50.778;7.206;2023-10-09T03:35:19;12.82;;;8.73;;
13590;SDS011;6866;50.778;7.206;2023-10-09T03:37:50;12.85;;;8.93;;
13590;SDS011;6866;50.778;7.206;2023-10-09T03:40:18;13.32;;;8.77;;
13590;SDS011;6866;50.778;7.206;2023-10-09T03:42:44;15.20;;;8.52;;
13590;SDS011;6866;50.778;7.206;2023-10-09T03:45:10;10.95;;;8.40;;
13590;SDS011;6866;50.778;7.206;2023-10-09T03:47:49;10.13;;;8.48;;
13590;SDS011;6866;50.778;7.206;2023-10-09T03:50:22;12.05;;;8.10;;
13590;SDS011;6866;50.778;7.206;2023-10-09T03:53:00;14.00;;;8.55;;
13590;SDS011;6866;50.778;7.206;2023-10-09T03:55:28;12.60;;;8.18;;
13590;SDS011;6866;50.778;7.206;2023-10-09T03:57:54;11.20;;;8.73;;
13590;SDS011;6866;50.778;7.206;2023-10-09T04:00:23;13.32;;;8.38;;
13590;SDS011;6866;50.778;7.206;2023-10-09T04:02:55;12.07;;;8.10;;
13590;SDS011;6866;50.778;7.206;2023-10-09T04:05:22;11.00;;;8.07;;
13590;SDS011;6866;50.778;7.206;2023-10-09T04:07:48;12.68;;;8.88;;
13590;SDS011;6866;50.778;7.206;2023-10-09T04:10:14;12.25;;;8.43;;
13590;SDS011;6866;50.778;7.206;2023-10-09T04:13:07;12.52;;;8.40;;
13590;SDS011;6866;50.778;7.206;2023-10-09T04:15:36;11.63;;;8.13;;
13590;SDS011;6866;50.778;7.206;2023-10-09T04:18:02;13.23;;;8.32;;
13590;SDS011;6866;50.778;7.206;2023-10-09T04:20:30;14.23;;;8.45;;
13590;SDS011;6866;50.778;7.206;2023-10-09T04:22:58;12.75;;;8.48;;
13590;SDS011;6866;50.778;7.206;2023-10-09T04:25:30;10.27;;;8.07;;
13590;SDS011;6866;50.778;7.206;2023-10-09T04:28:07;10.65;;;7.88;;
13590;SDS011;6866;50.778;7.206;2023-10-09T04:30:35;14.50;;;8.88;;
13590;SDS011;6866;50.778;7.206;2023-10-09T04:33:05;11.57;;;8.07;;
13590;SDS011;6866;50.778;7.206;2023-10-09T04:35:36;12.85;;;7.88;;
13590;SDS011;6866;50.778;7.206;2023-10-09T04:38:03;11.23;;;7.72;;
13590;SDS011;6866;50.778;7.206;2023-10-09T04:40:31;11.55;;;7.63;;
13590;SDS011;6866;50.778;7.206;2023-10-09T04:43:06;12.00;;;7.88;;
13590;SDS011;6866;50.778;7.206;2023-10-09T04:45:35;11.45;;;7.75;;
13590;SDS011;6866;50.778;7.206;2023-10-09T04:48:31;14.52;;;7.85;;
13590;SDS011;6866;50.778;7.206;2023-10-09T04:51:03;11.90;;;8.20;;
13590;SDS011;6866;50.778;7.206;2023-10-09T04:53:48;11.13;;;7.90;;
13590;SDS011;6866;50.778;7.206;2023-10-09T04:56:32;15.45;;;8.60;;
13590;SDS011;6866;50.778;7.206;2023-10-09T04:58:58;12.63;;;7.82;;
13590;SDS011;6866;50.778;7.206;2023-10-09T05:01:30;14.45;;;7.78;;
13590;SDS011;6866;50.778;7.206;2023-10-09T05:06:29;13.20;;;8.27;;
13590;SDS011;6866;50.778;7.206;2023-10-09T05:09:07;16.30;;;7.85;;
13590;SDS011;6866;50.778;7.206;2023-10-09T05:11:34;13.20;;;7.50;;
13590;SDS011;6866;50.778;7.206;2023-10-09T05:14:18;13.65;;;8.35;;
13590;SDS011;6866;50.778;7.206;2023-10-09T05:16:52;12.38;;;8.38;;
13590;SDS011;6866;50.778;7.206;2023-10-09T05:19:26;13.80;;;7.65;;
13590;SDS011;6866;50.778;7.206;2023-10-09T05:22:06;16.02;;;7.90;;
13590;SDS011;6866;50.778;7.206;2023-10-09T05:24:55;14.70;;;7.65;;
13590;SDS011;6866;50.778;7.206;2023-10-09T05:27:21;13.63;;;8.05;;
13590;SDS011;6866;50.778;7.206;2023-10-09T05:30:06;14.82;;;7.88;;
13590;SDS011;6866;50.778;7.206;2023-10-09T05:32:52;17.95;;;7.57;;
13590;SDS011;6866;50.778;7.206;2023-10-09T05:35:23;14.10;;;8.20;;
13590;SDS011;6866;50.778;7.206;2023-10-09T05:38:04;13.85;;;7.03;;
13590;SDS011;6866;50.778;7.206;2023-10-09T05:40:40;17.00;;;7.53;;
13590;SDS011;6866;50.778;7.206;2023-10-09T05:43:08;13.80;;;6.78;;
13590;SDS011;6866;50.778;7.206;2023-10-09T05:45:54;11.60;;;7.00;;
13590;SDS011;6866;50.778;7.206;2023-10-09T05:48:40;11.30;;;7.25;;
13590;SDS011;6866;50.778;7.206;2023-10-09T05:51:05;10.75;;;7.38;;
13590;SDS011;6866;50.778;7.206;2023-10-09T05:53:34;12.65;;;7.63;;
13590;SDS011;6866;50.778;7.206;2023-10-09T05:56:08;13.48;;;7.78;;
13590;SDS011;6866;50.778;7.206;2023-10-09T05:58:53;13.65;;;7.45;;
13590;SDS011;6866;50.778;7.206;2023-10-09T06:01:36;15.20;;;7.75;;
13590;SDS011;6866;50.778;7.206;2023-10-09T06:04:20;16.30;;;7.95;;
13590;SDS011;6866;50.778;7.206;2023-10-09T06:06:50;13.90;;;7.28;;
13590;SDS011;6866;50.778;7.206;2023-10-09T06:09:25;12.75;;;7.38;;
13590;SDS011;6866;50.778;7.206;2023-10-09T06:12:14;11.43;;;6.80;;
13590;SDS011;6866;50.778;7.206;2023-10-09T06:14:58;14.98;;;7.30;;
13590;SDS011;6866;50.778;7.206;2023-10-09T06:17:45;11.23;;;7.03;;
13590;SDS011;6866;50.778;7.206;2023-10-09T06:20:15;16.00;;;7.82;;
13590;SDS011;6866;50.778;7.206;2023-10-09T06:23:00;11.35;;;7.07;;
13590;SDS011;6866;50.778;7.206;2023-10-09T06:25:40;9.90;;;7.07;;
13590;SDS011;6866;50.778;7.206;2023-10-09T06:28:16;11.55;;;7.07;;
13590;SDS011;6866;50.778;7.206;2023-10-09T06:30:44;9.65;;;6.53;;
13590;SDS011;6866;50.778;7.206;2023-10-09T06:33:12;10.68;;;7.90;;
13590;SDS011;6866;50.778;7.206;2023-10-09T06:35:45;12.38;;;7.57;;
13590;SDS011;6866;50.778;7.206;2023-10-09T06:38:18;14.23;;;7.60;;
13590;SDS011;6866;50.778;7.206;2023-10-09T06:40:49;11.93;;;6.85;;
13590;SDS011;6866;50.778;7.206;2023-10-09T06:43:30;12.35;;;7.50;;
13590;SDS011;6866;50.778;7.206;2023-10-09T06:45:57;12.77;;;7.68;;
13590;SDS011;6866;50.778;7.206;2023-10-09T06:48:42;13.63;;;7.55;;
13590;SDS011;6866;50.778;7.206;2023-10-09T06:51:12;12.90;;;7.20;;
13590;SDS011;6866;50.778;7.206;2023-10-09T06:54:00;13.32;;;6.60;;
13590;SDS011;6866;50.778;7.206;2023-10-09T06:56:43;10.95;;;6.00;;
13590;SDS011;6866;50.778;7.206;2023-10-09T06:59:17;13.07;;;6.55;;
13590;SDS011;6866;50.778;7.206;2023-10-09T07:02:06;17.58;;;7.53;;
13590;SDS011;6866;50.778;7.206;2023-10-09T07:04:51;15.35;;;7.40;;
13590;SDS011;6866;50.778;7.206;2023-10-09T07:07:20;12.90;;;7.45;;
13590;SDS011;6866;50.778;7.206;2023-10-09T07:09:46;14.45;;;6.95;;
13590;SDS011;6866;50.778;7.206;2023-10-09T07:12:34;9.68;;;6.43;;
13590;SDS011;6866;50.778;7.206;2023-10-09T07:15:07;14.27;;;6.90;;
13590;SDS011;6866;50.778;7.206;2023-10-09T07:17:33;11.75;;;7.00;;
13590;SDS011;6866;50.778;7.206;2023-10-09T07:20:00;10.68;;;6.57;;
13590;SDS011;6866;50.778;7.206;2023-10-09T07:22:38;10.48;;;6.70;;
13590;SDS011;6866;50.778;7.206;2023-10-09T07:25:21;11.70;;;7.00;;
13590;SDS011;6866;50.778;7.206;2023-10-09T07:28:13;10.50;;;6.53;;
13590;SDS011;6866;50.778;7.206;2023-10-09T07:30:54;12.90;;;6.53;;
13590;SDS011;6866;50.778;7.206;2023-10-09T07:33:23;10.07;;;6.55;;
13590;SDS011;6866;50.778;7.206;2023-10-09T07:36:03;14.75;;;6.80;;
13590;SDS011;6866;50.778;7.206;2023-10-09T07:38:33;12.50;;;7.32;;
13590;SDS011;6866;50.778;7.206;2023-10-09T07:41:01;10.05;;;6.55;;
13590;SDS011;6866;50.778;7.206;2023-10-09T07:43:37;10.45;;;6.22;;
13590;SDS011;6866;50.778;7.206;2023-10-09T07:46:04;13.07;;;7.07;;
13590;SDS011;6866;50.778;7.206;2023-10-09T07:48:49;12.32;;;6.15;;
13590;SDS011;6866;50.778;7.206;2023-10-09T07:51:18;10.05;;;5.90;;
13590;SDS011;6866;50.778;7.206;2023-10-09T07:53:49;14.63;;;5.95;;
13590;SDS011;6866;50.778;7.206;2023-10-09T07:56:32;11.30;;;5.75;;
13590;SDS011;6866;50.778;7.206;2023-10-09T07:59:03;9.13;;;5.30;;
13590;SDS011;6866;50.778;7.206;2023-10-09T08:01:35;10.30;;;5.82;;
13590;SDS011;6866;50.778;7.206;2023-10-09T08:04:18;10.55;;;6.05;;
13590;SDS011;6866;50.778;7.206;2023-10-09T08:07:07;9.05;;;5.38;;
13590;SDS011;6866;50.778;7.206;2023-10-09T08:09:34;12.10;;;6.28;;
13590;SDS011;6866;50.778;7.206;2023-10-09T08:12:13;11.93;;;6.00;;
13590;SDS011;6866;50.778;7.206;2023-10-09T08:15:01;10.57;;;6.05;;
13590;SDS011;6866;50.778;7.206;2023-10-09T08:17:52;13.50;;;6.00;;
13590;SDS011;6866;50.778;7.206;2023-10-09T08:20:24;11.50;;;6.35;;
13590;SDS011;6866;50.778;7.206;2023-10-09T08:22:53;12.50;;;6.13;;
13590;SDS011;6866;50.778;7.206;2023-10-09T08:25:23;11.35;;;5.78;;
13590;SDS011;6866;50.778;7.206;2023-10-09T08:27:55;12.95;;;5.97;;
13590;SDS011;6866;50.778;7.206;2023-10-09T08:30:23;10.73;;;5.53;;
13590;SDS011;6866;50.778;7.206;2023-10-09T08:32:50;17.55;;;6.50;;
13590;SDS011;6866;50.778;7.206;2023-10-09T08:35:30;12.13;;;5.57;;
13590;SDS011;6866;50.778;7.206;2023-10-09T08:38:01;13.20;;;6.30;;
13590;SDS011;6866;50.778;7.206;2023-10-09T08:40:37;12.40;;;6.43;;
13590;SDS011;6866;50.778;7.206;2023-10-09T08:43:20;12.23;;;6.70;;
13590;SDS011;6866;50.778;7.206;2023-10-09T08:45:47;12.27;;;6.38;;
13590;SDS011;6866;50.778;7.206;2023-10-09T08:48:16;11.90;;;6.50;;
13590;SDS011;6866;50.778;7.206;2023-10-09T08:50:43;12.27;;;6.00;;
13590;SDS011;6866;50.778;7.206;2023-10-09T08:53:11;12.00;;;6.60;;
13590;SDS011;6866;50.778;7.206;2023-10-09T08:55:37;13.25;;;6.35;;
13590;SDS011;6866;50.778;7.206;2023-10-09T08:58:04;13.55;;;6.30;;
13590;SDS011;6866;50.778;7.206;2023-10-09T09:00:50;14.20;;;6.50;;
13590;SDS011;6866;50.778;7.206;2023-10-09T09:03:17;15.07;;;6.38;;
13590;SDS011;6866;50.778;7.206;2023-10-09T09:05:48;19.02;;;6.72;;
13590;SDS011;6866;50.778;7.206;2023-10-09T09:08:26;14.02;;;6.47;;
13590;SDS011;6866;50.778;7.206;2023-10-09T09:10:58;12.23;;;6.80;;
13590;SDS011;6866;50.778;7.206;2023-10-09T09:13:37;13.45;;;6.45;;
13590;SDS011;6866;50.778;7.206;2023-10-09T09:16:16;14.82;;;6.50;;
13590;SDS011;6866;50.778;7.206;2023-10-09T09:19:00;12.05;;;6.95;;
13590;SDS011;6866;50.778;7.206;2023-10-09T09:21:28;12.50;;;6.70;;
13590;SDS011;6866;50.778;7.206;2023-10-09T09:23:55;12.18;;;6.70;;
13590;SDS011;6866;50.778;7.206;2023-10-09T09:29:02;12.45;;;6.15;;
13590;SDS011;6866;50.778;7.206;2023-10-09T09:31:34;13.70;;;6.80;;
13590;SDS011;6866;50.778;7.206;2023-10-09T09:34:03;13.55;;;6.63;;
13590;SDS011;6866;50.778;7.206;2023-10-09T09:36:48;12.50;;;6.97;;
13590;SDS011;6866;50.778;7.206;2023-10-09T09:39:21;13.18;;;7.00;;
13590;SDS011;6866;50.778;7.206;2023-10-09T09:41:58;13.13;;;7.43;;
13590;SDS011;6866;50.778;7.206;2023-10-09T09:44:42;15.15;;;6.45;;
13590;SDS011;6866;50.778;7.206;2023-10-09T09:47:12;14.00;;;6.75;;
13590;SDS011;6866;50.778;7.206;2023-10-09T09:49:41;13.38;;;6.55;;
13590;SDS011;6866;50.778;7.206;2023-10-09T09:52:08;11.48;;;6.28;;
13590;SDS011;6866;50.778;7.206;2023-10-09T09:54:37;17.58;;;6.25;;
13590;SDS011;6866;50.778;7.206;2023-10-09T09:57:04;11.00;;;5.80;;
13590;SDS011;6866;50.778;7.206;2023-10-09T09:59:35;11.73;;;5.63;;
13590;SDS011;6866;50.778;7.206;2023-10-09T10:02:05;9.73;;;5.38;;
13590;SDS011;6866;50.778;7.206;2023-10-09T10:04:36;12.27;;;5.20;;
13590;SDS011;6866;50.778;7.206;2023-10-09T10:07:06;7.03;;;4.22;;
13590;SDS011;6866;50.778;7.206;2023-10-09T10:09:38;10.35;;;4.70;;
13590;SDS011;6866;50.778;7.206;2023-10-09T10:12:06;8.25;;;4.57;;
13590;SDS011;6866;50.778;7.206;2023-10-09T10:17:22;11.45;;;5.07;;
13590;SDS011;6866;50.778;7.206;2023-10-09T10:19:58;8.73;;;4.68;;
13590;SDS011;6866;50.778;7.206;2023-10-09T10:22:47;9.98;;;4.65;;
13590;SDS011;6866;50.778;7.206;2023-10-09T10:31:00;8.60;;;4.68;;
13590;SDS011;6866;50.778;7.206;2023-10-09T10:33:44;9.48;;;4.65;;
13590;SDS011;6866;50.778;7.206;2023-10-09T10:36:20;8.32;;;4.68;;
13590;SDS011;6866;50.778;7.206;2023-10-09T10:38:59;10.13;;;5.05;;
13590;SDS011;6866;50.778;7.206;2023-10-09T10:41:52;8.15;;;4.53;;
13590;SDS011;6866;50.778;7.206;2023-10-09T10:44:29;10.15;;;4.55;;
13590;SDS011;6866;50.778;7.206;2023-10-09T10:47:04;7.35;;;3.97;;
13590;SDS011;6866;50.778;7.206;2023-10-09T10:49:42;10.38;;;4.40;;
13590;SDS011;6866;50.778;7.206;2023-10-09T10:52:08;8.75;;;4.22;;
13590;SDS011;6866;50.778;7.206;2023-10-09T10:54:45;10.43;;;4.65;;
13590;SDS011;6866;50.778;7.206;2023-10-09T10:57:15;10.00;;;4.45;;
13590;SDS011;6866;50.778;7.206;2023-10-09T10:59:54;10.13;;;4.60;;
13590;SDS011;6866;50.778;7.206;2023-10-09T11:02:38;7.95;;;4.28;;
13590;SDS011;6866;50.778;7.206;2023-10-09T11:05:06;8.80;;;4.60;;
13590;SDS011;6866;50.778;7.206;2023-10-09T11:07:51;11.43;;;5.03;;
13590;SDS011;6866;50.778;7.206;2023-10-09T11:10:22;11.02;;;4.57;;
13590;SDS011;6866;50.778;7.206;2023-10-09T11:12:53;7.93;;;4.05;;
13590;SDS011;6866;50.778;7.206;2023-10-09T11:15:32;10.18;;;5.10;;
13590;SDS011;6866;50.778;7.206;2023-10-09T11:18:13;8.52;;;4.43;;
13590;SDS011;6866;50.778;7.206;2023-10-09T11:20:54;9.07;;;4.47;;
13590;SDS011;6866;50.778;7.206;2023-10-09T11:23:37;10.20;;;4.75;;
13590;SDS011;6866;50.778;7.206;2023-10-09T11:26:12;10.90;;;4.72;;
13590;SDS011;6866;50.778;7.206;2023-10-09T11:29:08;10.35;;;4.40;;
13590;SDS011;6866;50.778;7.206;2023-10-09T11:32:03;12.02;;;4.82;;
13590;SDS011;6866;50.778;7.206;2023-10-09T11:34:30;16.33;;;5.22;;
13590;SDS011;6866;50.778;7.206;2023-10-09T11:37:18;13.68;;;7.60;;
13590;SDS011;6866;50.778;7.206;2023-10-09T11:39:59;11.15;;;5.18;;
13590;SDS011;6866;50.778;7.206;2023-10-09T11:42:28;11.40;;;7.13;;
13590;SDS011;6866;50.778;7.206;2023-10-09T11:45:20;12.38;;;6.57;;
13590;SDS011;6866;50.778;7.206;2023-10-09T11:47:53;11.30;;;4.90;;
13590;SDS011;6866;50.778;7.206;2023-10-09T11:50:41;10.65;;;5.20;;
13590;SDS011;6866;50.778;7.206;2023-10-09T11:53:08;10.32;;;5.03;;
13590;SDS011;6866;50.778;7.206;2023-10-09T11:55:44;8.18;;;4.45;;
13590;SDS011;6866;50.778;7.206;2023-10-09T11:58:17;11.45;;;5.05;;
13590;SDS011;6866;50.778;7.206;2023-10-09T12:00:54;13.88;;;4.55;;
13590;SDS011;6866;50.778;7.206;2023-10-09T12:03:30;10.30;;;5.22;;
13590;SDS011;6866;50.778;7.206;2023-10-09T12:06:00;9.50;;;5.10;;
13590;SDS011;6866;50.778;7.206;2023-10-09T12:08:32;13.02;;;5.15;;
13590;SDS011;6866;50.778;7.206;2023-10-09T12:10:58;11.43;;;4.78;;
13590;SDS011;6866;50.778;7.206;2023-10-09T12:13:24;9.27;;;5.00;;
13590;SDS011;6866;50.778;7.206;2023-10-09T12:15:51;9.43;;;4.72;;
13590;SDS011;6866;50.778;7.206;2023-10-09T12:18:17;8.45;;;4.70;;
13590;SDS011;6866;50.778;7.206;2023-10-09T12:20:44;12.48;;;4.70;;
13590;SDS011;6866;50.778;7.206;2023-10-09T12:23:17;10.52;;;5.32;;
13590;SDS011;6866;50.778;7.206;2023-10-09T12:25:50;11.40;;;5.10;;
13590;SDS011;6866;50.778;7.206;2023-10-09T12:28:16;10.85;;;4.97;;
13590;SDS011;6866;50.778;7.206;2023-10-09T12:30:46;9.45;;;5.30;;
13590;SDS011;6866;50.778;7.206;2023-10-09T12:33:15;11.50;;;5.22;;
13590;SDS011;6866;50.778;7.206;2023-10-09T12:35:43;15.63;;;4.90;;
13590;SDS011;6866;50.778;7.206;2023-10-09T12:38:12;14.20;;;4.85;;
13590;SDS011;6866;50.778;7.206;2023-10-09T12:43:15;11.38;;;4.90;;
13590;SDS011;6866;50.778;7.206;2023-10-09T12:45:42;10.30;;;4.40;;
13590;SDS011;6866;50.778;7.206;2023-10-09T12:48:07;17.13;;;8.10;;
13590;SDS011;6866;50.778;7.206;2023-10-09T12:50:37;15.05;;;8.35;;
13590;SDS011;6866;50.778;7.206;2023-10-09T12:53:12;9.65;;;5.22;;
13590;SDS011;6866;50.778;7.206;2023-10-09T12:55:42;12.43;;;6.13;;
13590;SDS011;6866;50.778;7.206;2023-10-09T12:58:09;10.73;;;5.32;;
13590;SDS011;6866;50.778;7.206;2023-10-09T13:00:40;12.15;;;5.38;;
13590;SDS011;6866;50.778;7.206;2023-10-09T13:03:13;8.88;;;5.18;;
13590;SDS011;6866;50.778;7.206;2023-10-09T13:05:43;15.20;;;5.05;;
13590;SDS011;6866;50.778;7.206;2023-10-09T13:08:17;10.35;;;5.57;;
13590;SDS011;6866;50.778;7.206;2023-10-09T13:10:46;20.98;;;13.10;;
13590;SDS011;6866;50.778;7.206;2023-10-09T13:13:26;12.88;;;8.52;;
13590;SDS011;6866;50.778;7.206;2023-10-09T13:16:05;11.60;;;5.40;;
13590;SDS011;6866;50.778;7.206;2023-10-09T13:18:42;9.95;;;4.93;;
13590;SDS011;6866;50.778;7.206;2023-10-09T13:21:15;9.43;;;4.70;;
13590;SDS011;6866;50.778;7.206;2023-10-09T13:23:41;12.55;;;5.15;;
13590;SDS011;6866;50.778;7.206;2023-10-09T13:26:11;8.52;;;4.13;;
13590;SDS011;6866;50.778;7.206;2023-10-09T13:29:08;11.45;;;4.32;;
13590;SDS011;6866;50.778;7.206;2023-10-09T13:31:35;10.57;;;4.57;;
13590;SDS011;6866;50.778;7.206;2023-10-09T13:34:08;9.13;;;4.60;;
13590;SDS011;6866;50.778;7.206;2023-10-09T13:36:40;8.93;;;4.13;;
13590;SDS011;6866;50.778;7.206;2023-10-09T13:39:15;9.85;;;4.68;;
13590;SDS011;6866;50.778;7.206;2023-10-09T13:41:53;8.73;;;4.55;;
13590;SDS011;6866;50.778;7.206;2023-10-09T13:44:32;8.57;;;4.10;;
13590;SDS011;6866;50.778;7.206;2023-10-09T13:47:05;10.07;;;4.63;;
13590;SDS011;6866;50.778;7.206;2023-10-09T13:49:33;10.20;;;4.80;;
13590;SDS011;6866;50.778;7.206;2023-10-09T13:52:02;11.63;;;5.00;;
13590;SDS011;6866;50.778;7.206;2023-10-09T13:54:29;12.40;;;4.63;;
13590;SDS011;6866;50.778;7.206;2023-10-09T13:56:58;10.63;;;4.45;;
13590;SDS011;6866;50.778;7.206;2023-10-09T13:59:24;10.57;;;4.82;;
13590;SDS011;6866;50.778;7.206;2023-10-09T14:01:53;9.88;;;4.95;;
13590;SDS011;6866;50.778;7.206;2023-10-09T14:04:20;9.18;;;4.60;;
13590;SDS011;6866;50.778;7.206;2023-10-09T14:06:48;22.45;;;5.85;;
13590;SDS011;6866;50.778;7.206;2023-10-09T14:09:14;9.77;;;4.63;;
13590;SDS011;6866;50.778;7.206;2023-10-09T14:11:56;12.43;;;4.35;;
13590;SDS011;6866;50.778;7.206;2023-10-09T14:14:35;14.98;;;8.90;;
13590;SDS011;6866;50.778;7.206;2023-10-09T14:17:09;11.52;;;5.10;;
13590;SDS011;6866;50.778;7.206;2023-10-09T14:19:41;11.93;;;5.03;;
13590;SDS011;6866;50.778;7.206;2023-10-09T14:22:17;12.30;;;5.35;;
13590;SDS011;6866;50.778;7.206;2023-10-09T14:24:51;12.73;;;5.15;;
13590;SDS011;6866;50.778;7.206;2023-10-09T14:27:20;12.25;;;5.10;;
13590;SDS011;6866;50.778;7.206;2023-10-09T14:29:50;14.33;;;5.53;;
13590;SDS011;6866;50.778;7.206;2023-10-09T14:32:20;12.90;;;5.93;;
13590;SDS011;6866;50.778;7.206;2023-10-09T14:34:53;12.40;;;5.10;;
13590;SDS011;6866;50.778;7.206;2023-10-09T14:37:20;13.05;;;4.90;;
13590;SDS011;6866;50.778;7.206;2023-10-09T14:39:46;11.23;;;5.00;;
13590;SDS011;6866;50.778;7.206;2023-10-09T14:42:16;10.15;;;4.88;;
13590;SDS011;6866;50.778;7.206;2023-10-09T14:44:43;8.95;;;4.72;;
13590;SDS011;6866;50.778;7.206;2023-10-09T14:47:10;14.70;;;5.20;;
13590;SDS011;6866;50.778;7.206;2023-10-09T14:49:35;11.00;;;5.20;;
13590;SDS011;6866;50.778;7.206;2023-10-09T14:52:09;11.73;;;5.28;;
13590;SDS011;6866;50.778;7.206;2023-10-09T14:54:38;12.40;;;5.13;;
13590;SDS011;6866;50.778;7.206;2023-10-09T14:57:04;14.23;;;5.20;;
13590;SDS011;6866;50.778;7.206;2023-10-09T14:59:34;8.68;;;5.10;;
13590;SDS011;6866;50.778;7.206;2023-10-09T15:02:00;10.68;;;5.38;;
13590;SDS011;6866;50.778;7.206;2023-10-09T15:04:26;11.88;;;4.82;;
13590;SDS011;6866;50.778;7.206;2023-10-09T15:06:52;11.07;;;4.95;;
13590;SDS011;6866;50.778;7.206;2023-10-09T15:09:17;8.32;;;4.80;;
13590;SDS011;6866;50.778;7.206;2023-10-09T15:11:53;12.68;;;5.00;;
13590;SDS011;6866;50.778;7.206;2023-10-09T15:14:19;10.63;;;5.28;;
13590;SDS011;6866;50.778;7.206;2023-10-09T15:16:46;13.80;;;5.57;;
13590;SDS011;6866;50.778;7.206;2023-10-09T15:19:13;10.18;;;5.00;;
13590;SDS011;6866;50.778;7.206;2023-10-09T15:21:41;14.50;;;5.28;;
13590;SDS011;6866;50.778;7.206;2023-10-09T15:24:10;13.50;;;4.80;;
13590;SDS011;6866;50.778;7.206;2023-10-09T15:26:41;10.23;;;4.80;;
13590;SDS011;6866;50.778;7.206;2023-10-09T15:29:07;9.75;;;5.05;;
13590;SDS011;6866;50.778;7.206;2023-10-09T15:31:35;10.82;;;5.30;;
13590;SDS011;6866;50.778;7.206;2023-10-09T15:34:01;11.45;;;5.53;;
13590;SDS011;6866;50.778;7.206;2023-10-09T15:36:27;11.48;;;5.57;;
13590;SDS011;6866;50.778;7.206;2023-10-09T15:38:57;12.82;;;5.80;;
13590;SDS011;6866;50.778;7.206;2023-10-09T15:41:25;9.93;;;5.28;;
13590;SDS011;6866;50.778;7.206;2023-10-09T15:43:57;11.18;;;5.35;;